createdAt,value
2022-10-20T00:01:43.103Z,9.10
2022-10-20T00:04:48.081Z,6.07
2022-10-20T00:07:52.667Z,25.52
2022-10-20T00:10:58.046Z,7.43
2022-10-20T00:14:03.681Z,28.00
2022-10-20T00:20:12.476Z,11.65
2022-10-20T00:23:17.207Z,12.82
2022-10-20T00:26:26.422Z,26.83
2022-10-20T00:29:31.267Z,14.27
2022-10-20T00:32:36.130Z,9.23
2022-10-20T00:35:40.922Z,17.60
2022-10-20T00:38:45.378Z,6.60
2022-10-20T00:41:49.784Z,7.13
2022-10-20T00:44:58.269Z,13.18
2022-10-20T00:48:09.720Z,35.22
2022-10-20T00:51:16.870Z,11.23
2022-10-20T00:54:27.131Z,7.43
2022-10-20T00:57:33.452Z,13.70
2022-10-20T01:00:41.303Z,11.35
2022-10-20T01:03:49.405Z,12.55
2022-10-20T01:06:53.688Z,8.27
2022-10-20T01:09:58.226Z,16.55
2022-10-20T01:13:24.445Z,18.27
2022-10-20T01:16:37.289Z,16.85
2022-10-20T01:20:24.547Z,9.30
2022-10-20T01:23:53.529Z,17.60
2022-10-20T01:27:28.127Z,12.60
2022-10-20T01:30:36.401Z,16.23
2022-10-20T01:33:49.172Z,16.88
2022-10-20T01:37:01.536Z,17.23
2022-10-20T01:40:29.486Z,19.83
2022-10-20T01:43:39.112Z,12.07
2022-10-20T01:46:44.909Z,14.82
2022-10-20T01:49:50.655Z,14.88
2022-10-20T01:53:01.062Z,16.50
2022-10-20T01:56:07.687Z,11.40
2022-10-20T01:59:22.546Z,11.73
2022-10-20T02:02:48.557Z,10.37
2022-10-20T02:06:17.102Z,14.23
2022-10-20T02:09:42.068Z,12.55
2022-10-20T02:12:51.935Z,14.50
2022-10-20T02:16:39.665Z,12.75
2022-10-20T02:19:46.687Z,17.00
2022-10-20T02:22:51.731Z,13.20
2022-10-20T02:25:57.214Z,15.65
2022-10-20T02:29:33.355Z,15.15
2022-10-20T02:32:40.140Z,9.15
2022-10-20T02:35:54.925Z,12.15
2022-10-20T02:38:59.196Z,22.83
2022-10-20T02:42:03.388Z,19.27
2022-10-20T02:45:09.215Z,16.80
2022-10-20T02:48:16.507Z,14.43
2022-10-20T02:51:21.867Z,11.40
2022-10-20T02:54:26.037Z,14.45
2022-10-20T02:57:30.634Z,14.90
2022-10-20T03:00:35.114Z,20.97
2022-10-20T03:03:39.611Z,14.80
2022-10-20T03:06:44.822Z,17.83
2022-10-20T03:09:49.919Z,17.13
2022-10-20T03:12:54.353Z,15.20
2022-10-20T03:15:58.787Z,16.55
2022-10-20T03:19:06.301Z,15.52
2022-10-20T03:22:12.010Z,23.20
2022-10-20T03:25:16.895Z,14.70
2022-10-20T03:28:21.246Z,15.90
2022-10-20T03:31:26.054Z,15.73
2022-10-20T03:34:30.399Z,15.38
2022-10-20T03:37:34.938Z,19.17
2022-10-20T03:40:39.180Z,13.27
2022-10-20T03:43:43.807Z,18.55
2022-10-20T03:46:48.285Z,12.98
2022-10-20T03:49:52.788Z,15.00
2022-10-20T03:52:56.983Z,24.23
2022-10-20T03:56:06.002Z,17.92
2022-10-20T03:59:12.486Z,31.05
2022-10-20T04:02:29.760Z,18.40
2022-10-20T04:05:34.020Z,15.43
2022-10-20T04:08:38.912Z,16.23
2022-10-20T04:11:43.417Z,14.68
2022-10-20T04:14:51.681Z,15.73
2022-10-20T04:17:56.344Z,17.73
2022-10-20T04:21:01.042Z,14.27
2022-10-20T04:24:06.564Z,16.93
2022-10-20T04:27:11.036Z,13.40
2022-10-20T04:30:18.300Z,16.08
2022-10-20T04:33:22.771Z,12.13
2022-10-20T04:36:27.016Z,11.45
2022-10-20T04:39:33.941Z,15.52
2022-10-20T04:42:38.515Z,12.57
2022-10-20T04:45:44.645Z,24.67
2022-10-20T04:48:50.274Z,13.57
2022-10-20T04:51:58.628Z,24.42
2022-10-20T04:55:05.167Z,20.17
2022-10-20T04:58:09.812Z,14.75
2022-10-20T05:01:14.107Z,11.48
2022-10-20T05:04:22.287Z,10.27
2022-10-20T05:07:26.839Z,17.73
2022-10-20T05:10:34.406Z,13.97
2022-10-20T05:13:41.392Z,10.73
2022-10-20T05:16:45.646Z,12.50
2022-10-20T05:19:50.442Z,14.95
2022-10-20T05:22:54.727Z,13.38
2022-10-20T05:25:59.387Z,10.70
2022-10-20T05:29:06.761Z,11.70
2022-10-20T05:32:12.813Z,10.98
2022-10-20T05:35:17.366Z,20.33
2022-10-20T05:38:21.655Z,8.93
2022-10-20T05:41:34.748Z,12.15
2022-10-20T05:44:42.472Z,14.95
2022-10-20T05:47:46.728Z,12.05
2022-10-20T05:50:51.358Z,8.55
2022-10-20T05:53:57.768Z,14.98
2022-10-20T05:57:02.394Z,12.55
2022-10-20T06:00:07.547Z,9.30
2022-10-20T06:03:17.604Z,10.50
2022-10-20T06:06:26.530Z,10.77
2022-10-20T06:09:30.845Z,10.52
2022-10-20T06:12:37.439Z,10.75
2022-10-20T06:15:42.071Z,11.75
2022-10-20T06:18:46.527Z,13.98
2022-10-20T06:21:51.144Z,11.70
2022-10-20T06:24:55.476Z,8.63
2022-10-20T06:27:59.669Z,13.95
2022-10-20T06:31:16.454Z,10.85
2022-10-20T06:34:23.580Z,13.90
2022-10-20T06:37:30.548Z,14.13
2022-10-20T06:40:36.115Z,8.52
2022-10-20T06:43:40.765Z,10.57
2022-10-20T06:46:46.009Z,12.18
2022-10-20T06:49:50.898Z,9.07
2022-10-20T06:52:55.278Z,16.33
2022-10-20T06:56:08.215Z,15.65
2022-10-20T06:59:12.546Z,10.90
2022-10-20T07:02:17.237Z,11.88
2022-10-20T07:05:23.004Z,8.95
2022-10-20T07:11:34.115Z,14.68
2022-10-20T07:14:38.421Z,13.30
2022-10-20T07:17:42.832Z,13.52
2022-10-20T07:20:47.060Z,16.02
2022-10-20T07:23:52.669Z,15.90
2022-10-20T07:27:00.388Z,21.52
2022-10-20T07:30:05.714Z,14.65
2022-10-20T07:33:10.903Z,12.05
2022-10-20T07:36:21.953Z,17.02
2022-10-20T07:39:26.835Z,11.85
2022-10-20T07:42:31.427Z,13.65
2022-10-20T07:45:36.864Z,10.45
2022-10-20T07:48:42.914Z,13.65
2022-10-20T07:51:48.714Z,17.20
2022-10-20T07:55:01.596Z,11.18
2022-10-20T07:58:18.247Z,8.45
2022-10-20T08:01:22.628Z,18.97
2022-10-20T08:04:27.173Z,20.42
2022-10-20T08:07:31.763Z,14.30
2022-10-20T08:10:36.417Z,14.85
2022-10-20T08:13:42.371Z,17.35
2022-10-20T08:16:52.530Z,11.15
2022-10-20T08:23:15.380Z,17.65
2022-10-20T08:26:23.441Z,11.23
2022-10-20T08:29:29.022Z,15.98
2022-10-20T08:32:34.130Z,14.98
2022-10-20T08:35:38.616Z,10.07
2022-10-20T08:38:44.627Z,17.50
2022-10-20T08:42:08.910Z,11.80
2022-10-20T08:45:38.493Z,8.20
2022-10-20T08:48:44.581Z,11.88
2022-10-20T08:51:49.557Z,10.52
2022-10-20T08:54:58.851Z,17.58
2022-10-20T08:58:29.890Z,13.98
2022-10-20T09:01:37.171Z,10.05
2022-10-20T09:05:02.871Z,7.43
2022-10-20T09:08:10.894Z,11.23
2022-10-20T09:11:24.066Z,9.05
2022-10-20T09:14:31.912Z,12.02
2022-10-20T09:17:37.198Z,24.75
2022-10-20T09:20:53.363Z,22.20
2022-10-20T09:24:02.148Z,12.65
2022-10-20T09:27:25.051Z,32.63
2022-10-20T09:30:35.383Z,22.60
2022-10-20T09:33:39.731Z,23.95
2022-10-20T09:36:44.622Z,16.70
2022-10-20T09:39:55.559Z,38.53
2022-10-20T09:43:03.334Z,35.92
2022-10-20T09:46:11.332Z,43.47
2022-10-20T09:49:38.157Z,33.28
2022-10-20T09:52:49.879Z,25.13
2022-10-20T09:55:54.703Z,42.90
2022-10-20T09:59:02.261Z,36.88
2022-10-20T10:02:27.596Z,34.95
2022-10-20T10:05:34.595Z,50.08
2022-10-20T10:08:47.568Z,50.17
2022-10-20T10:12:03.560Z,26.75
2022-10-20T10:18:30.641Z,50.30
2022-10-20T10:21:52.946Z,103.63
2022-10-20T10:24:58.218Z,101.40
2022-10-20T10:28:20.853Z,152.55
2022-10-20T10:31:27.044Z,166.45
2022-10-20T10:35:05.277Z,259.92
2022-10-20T10:38:13.992Z,437.85
2022-10-20T10:41:29.947Z,153.43
2022-10-20T10:48:02.795Z,123.35
2022-10-20T10:51:19.819Z,153.57
2022-10-20T10:55:05.031Z,124.80
2022-10-20T10:58:30.247Z,137.18
2022-10-20T11:01:40.589Z,112.97
2022-10-20T11:08:47.886Z,93.15
2022-10-20T11:11:55.589Z,102.03
2022-10-20T11:15:26.397Z,134.75
2022-10-20T11:18:33.683Z,148.82
2022-10-20T11:21:56.826Z,84.15
2022-10-20T11:25:01.656Z,105.45
2022-10-20T11:28:26.853Z,92.20
2022-10-20T11:31:39.681Z,174.27
2022-10-20T11:35:24.226Z,172.30
2022-10-20T11:38:56.005Z,67.85
2022-10-20T11:42:14.213Z,86.32
2022-10-20T11:45:43.680Z,79.43
2022-10-20T11:48:53.434Z,116.65
2022-10-20T11:52:22.902Z,90.68
2022-10-20T11:55:44.730Z,89.03
2022-10-20T11:59:36.719Z,90.95
2022-10-20T12:03:04.878Z,55.92
2022-10-20T12:06:35.572Z,46.08
2022-10-20T12:09:58.232Z,63.33
2022-10-20T12:13:15.231Z,69.53
2022-10-20T12:16:54.321Z,42.00
2022-10-20T12:20:23.203Z,46.90
2022-10-20T12:23:53.950Z,53.92
2022-10-20T12:27:04.127Z,49.00
2022-10-20T12:30:38.718Z,61.33
2022-10-20T12:33:55.550Z,104.85
2022-10-20T12:37:19.398Z,55.45
2022-10-20T12:41:23.288Z,56.05
2022-10-20T12:44:30.755Z,45.65
2022-10-20T12:47:38.567Z,25.17
2022-10-20T12:50:50.263Z,16.33
2022-10-20T12:54:07.788Z,28.60
2022-10-20T12:57:43.936Z,26.17
2022-10-20T13:00:48.387Z,20.77
2022-10-20T13:03:53.722Z,22.25
2022-10-20T13:06:58.137Z,16.70
2022-10-20T13:10:04.326Z,16.27
2022-10-20T13:13:09.554Z,15.90
2022-10-20T13:16:21.142Z,16.67
2022-10-20T13:19:34.864Z,30.05
2022-10-20T13:26:25.391Z,16.15
2022-10-20T13:29:35.398Z,34.08
2022-10-20T13:33:33.397Z,19.00
2022-10-20T13:37:00.596Z,18.67
2022-10-20T13:40:11.758Z,24.25
2022-10-20T13:43:19.203Z,23.48
2022-10-20T13:46:46.957Z,25.60
2022-10-20T13:50:06.779Z,25.83
2022-10-20T13:53:23.093Z,12.80
2022-10-20T13:59:41.871Z,14.68
2022-10-20T14:03:03.013Z,164.90
2022-10-20T14:06:07.171Z,64.53
2022-10-20T14:09:27.064Z,22.45
2022-10-20T14:12:33.358Z,53.05
2022-10-20T14:15:39.039Z,64.00
2022-10-20T14:18:43.444Z,47.58
2022-10-20T14:21:55.202Z,35.28
2022-10-20T14:25:01.042Z,36.15
2022-10-20T14:28:08.078Z,30.30
2022-10-20T14:31:14.960Z,16.73
2022-10-20T14:34:31.880Z,12.00
2022-10-20T14:37:42.956Z,17.83
2022-10-20T14:40:54.169Z,19.95
2022-10-20T14:44:12.190Z,14.88
2022-10-20T14:47:21.947Z,32.40
2022-10-20T14:50:28.899Z,17.05
2022-10-20T14:53:34.859Z,11.13
2022-10-20T15:00:13.900Z,19.13
2022-10-20T15:03:18.894Z,15.80
2022-10-20T15:06:23.427Z,18.25
2022-10-20T15:09:33.937Z,15.70
2022-10-20T15:12:38.512Z,16.17
2022-10-20T15:15:42.995Z,25.02
2022-10-20T15:18:47.386Z,15.10
2022-10-20T15:22:09.186Z,13.82
2022-10-20T15:25:13.974Z,97.05
2022-10-20T15:28:27.368Z,25.88
2022-10-20T15:31:32.335Z,17.17
2022-10-20T15:34:36.682Z,124.10
2022-10-20T15:37:40.975Z,44.08
2022-10-20T15:40:45.523Z,22.00
2022-10-20T15:43:50.762Z,25.90
2022-10-20T15:46:54.968Z,30.48
2022-10-20T15:49:59.353Z,35.90
2022-10-20T15:53:03.710Z,45.45
2022-10-20T15:56:09.854Z,22.85
2022-10-20T15:59:14.379Z,21.35
2022-10-20T16:02:18.808Z,30.02
2022-10-20T16:05:25.245Z,31.95
2022-10-20T16:08:30.106Z,53.72
2022-10-20T16:11:34.643Z,24.57
2022-10-20T16:14:40.737Z,33.08
2022-10-20T16:20:50.423Z,28.35
2022-10-20T16:23:54.979Z,50.08
2022-10-20T16:26:59.375Z,97.95
2022-10-20T16:30:05.669Z,67.22
2022-10-20T16:33:10.332Z,61.40
2022-10-20T16:36:17.528Z,54.03
2022-10-20T16:39:21.855Z,70.03
2022-10-20T16:42:27.302Z,60.38
2022-10-20T16:45:32.658Z,38.17
2022-10-20T16:48:41.500Z,34.78
2022-10-20T16:51:47.408Z,31.33
2022-10-20T16:54:51.691Z,34.47
2022-10-20T16:57:57.252Z,36.47
2022-10-20T17:01:09.637Z,36.38
2022-10-20T17:04:15.350Z,35.88
2022-10-20T17:07:20.140Z,40.30
2022-10-20T17:10:24.972Z,40.47
2022-10-20T17:13:30.582Z,34.67
2022-10-20T17:16:38.361Z,40.35
2022-10-20T17:19:44.218Z,34.58
2022-10-20T17:26:04.054Z,35.20
2022-10-20T17:29:10.476Z,28.40
2022-10-20T17:32:17.444Z,52.50
2022-10-20T17:35:23.082Z,35.88
2022-10-20T17:38:29.063Z,27.37
2022-10-20T17:44:37.777Z,36.88
2022-10-20T17:47:42.058Z,38.45
2022-10-20T17:50:46.797Z,27.40
2022-10-20T17:53:53.571Z,77.35
2022-10-20T17:56:58.388Z,297.90
2022-10-20T18:00:05.615Z,92.63
2022-10-20T18:03:15.558Z,29.77
2022-10-20T18:06:22.156Z,43.35
2022-10-20T18:09:26.635Z,33.00
2022-10-20T18:12:32.444Z,51.30
2022-10-20T18:18:47.415Z,21.73
2022-10-20T18:21:51.959Z,25.10
2022-10-20T18:24:56.205Z,19.50
2022-10-20T18:28:00.755Z,17.13
2022-10-20T18:31:10.852Z,14.05
2022-10-20T18:34:18.154Z,11.73
2022-10-20T18:37:22.637Z,20.70
2022-10-20T18:40:26.876Z,25.58
2022-10-20T18:43:31.197Z,13.57
2022-10-20T18:46:35.928Z,10.30
2022-10-20T18:49:40.224Z,45.78
2022-10-20T18:52:44.780Z,23.92
2022-10-20T18:56:04.816Z,12.23
2022-10-20T18:59:11.453Z,15.95
2022-10-20T19:02:15.771Z,31.52
2022-10-20T19:05:20.607Z,15.23
2022-10-20T19:08:26.587Z,21.10
2022-10-20T19:11:33.075Z,17.08
2022-10-20T19:14:37.478Z,17.63
2022-10-20T19:17:41.816Z,12.93
2022-10-20T19:20:54.159Z,9.15
2022-10-20T19:24:02.263Z,15.23
2022-10-20T19:27:25.683Z,14.50
2022-10-20T19:30:36.233Z,110.70
2022-10-20T19:33:40.586Z,15.02
2022-10-20T19:36:48.658Z,43.63
2022-10-20T19:39:53.327Z,14.77
2022-10-20T19:42:57.605Z,25.40
2022-10-20T19:46:02.171Z,16.60
2022-10-20T19:52:18.196Z,26.75
2022-10-20T19:55:22.758Z,17.65
2022-10-20T19:58:27.484Z,21.02
2022-10-20T20:01:32.186Z,32.75
2022-10-20T20:04:36.845Z,14.60
2022-10-20T20:07:41.401Z,14.73
2022-10-20T20:10:53.906Z,15.55
2022-10-20T20:14:01.687Z,14.52
2022-10-20T20:17:07.427Z,20.83
2022-10-20T20:20:14.790Z,35.83
2022-10-20T20:23:26.047Z,18.13
2022-10-20T20:26:39.490Z,17.58
2022-10-20T20:29:44.033Z,19.30
2022-10-20T20:32:50.750Z,19.63
2022-10-20T20:36:01.006Z,21.02
2022-10-20T20:39:05.629Z,20.45
2022-10-20T20:42:10.201Z,22.65
2022-10-20T20:45:15.819Z,116.28
2022-10-20T20:48:20.457Z,16.95
2022-10-20T20:51:29.944Z,25.77
2022-10-20T20:54:34.465Z,23.27
2022-10-20T20:57:39.454Z,30.60
2022-10-20T21:00:43.929Z,23.60
2022-10-20T21:03:48.737Z,27.35
2022-10-20T21:07:02.529Z,25.33
2022-10-20T21:10:07.787Z,37.30
2022-10-20T21:13:12.493Z,23.77
2022-10-20T21:16:22.491Z,30.30
2022-10-20T21:19:27.179Z,31.95
2022-10-20T21:22:31.684Z,29.83
2022-10-20T21:25:36.107Z,71.95
2022-10-20T21:28:40.436Z,48.25
2022-10-20T21:31:44.625Z,208.07
2022-10-20T21:34:48.816Z,73.97
2022-10-20T21:37:53.091Z,63.88
2022-10-20T21:41:03.674Z,51.67
2022-10-20T21:44:09.179Z,20.92
2022-10-20T21:47:13.264Z,24.27
2022-10-20T21:50:17.905Z,28.33
2022-10-20T21:53:22.415Z,17.15
2022-10-20T21:56:27.016Z,12.68
2022-10-20T21:59:32.098Z,27.65
2022-10-20T22:02:37.193Z,27.43
2022-10-20T22:05:41.699Z,22.77
2022-10-20T22:08:50.668Z,31.55
2022-10-20T22:11:57.642Z,43.28
2022-10-20T22:15:01.933Z,46.65
2022-10-20T22:18:08.180Z,44.40
2022-10-20T22:21:15.392Z,98.82
2022-10-20T22:24:20.531Z,46.80
2022-10-20T22:27:31.644Z,56.27
2022-10-20T22:30:46.336Z,47.08
2022-10-20T22:33:58.236Z,41.55
2022-10-20T22:37:02.742Z,33.78
2022-10-20T22:40:07.757Z,30.10
2022-10-20T22:43:12.377Z,19.90
2022-10-20T22:46:17.135Z,20.42
2022-10-20T22:49:21.611Z,23.58
2022-10-20T22:52:26.003Z,20.63
2022-10-20T22:55:30.342Z,19.20
2022-10-20T22:58:35.016Z,10.23
2022-10-20T23:01:39.883Z,20.33
2022-10-20T23:04:44.008Z,14.40
2022-10-20T23:07:48.441Z,11.27
2022-10-20T23:10:59.939Z,23.55
2022-10-20T23:14:04.044Z,34.75
2022-10-20T23:17:08.551Z,13.10
2022-10-20T23:20:13.067Z,24.95
2022-10-20T23:23:17.264Z,14.88
2022-10-20T23:26:22.069Z,15.15
2022-10-20T23:29:26.644Z,16.95
2022-10-20T23:32:31.036Z,15.35
2022-10-20T23:35:39.557Z,15.27
2022-10-20T23:38:44.717Z,34.70
2022-10-20T23:41:49.022Z,19.25
2022-10-20T23:44:53.036Z,20.88
2022-10-20T23:47:57.684Z,13.68
2022-10-20T23:51:02.472Z,15.07
2022-10-20T23:54:06.797Z,26.80
2022-10-20T23:57:10.965Z,17.85
